sensor_id;sensor_type;location;lat;lon;timestamp;temperature;humidity
37530;DHT22;23374;52.758;6.872;2023-10-19T00:01:50;8.40;99.90
37530;DHT22;23374;52.758;6.872;2023-10-19T00:04:11;8.40;99.90
37530;DHT22;23374;52.758;6.872;2023-10-19T00:06:31;8.50;99.90
37530;DHT22;23374;52.758;6.872;2023-10-19T00:08:52;8.50;99.90
37530;DHT22;23374;52.758;6.872;2023-10-19T00:11:13;8.50;99.90
37530;DHT22;23374;52.758;6.872;2023-10-19T00:13:42;8.50;99.90
37530;DHT22;23374;52.758;6.872;2023-10-19T00:16:08;8.50;99.90
37530;DHT22;23374;52.758;6.872;2023-10-19T00:18:36;8.50;99.90
37530;DHT22;23374;52.758;6.872;2023-10-19T00:20:56;8.50;99.90
37530;DHT22;23374;52.758;6.872;2023-10-19T00:23:25;8.50;99.90
37530;DHT22;23374;52.758;6.872;2023-10-19T00:25:49;8.50;99.90
37530;DHT22;23374;52.758;6.872;2023-10-19T00:28:12;8.50;99.90
37530;DHT22;23374;52.758;6.872;2023-10-19T00:30:35;8.50;99.90
37530;DHT22;23374;52.758;6.872;2023-10-19T00:32:56;8.50;99.90
37530;DHT22;23374;52.758;6.872;2023-10-19T00:35:17;8.50;99.90
37530;DHT22;23374;52.758;6.872;2023-10-19T00:37:56;8.50;99.90
37530;DHT22;23374;52.758;6.872;2023-10-19T00:40:38;8.50;99.90
37530;DHT22;23374;52.758;6.872;2023-10-19T00:43:04;8.50;99.90
37530;DHT22;23374;52.758;6.872;2023-10-19T00:45:29;8.50;99.90
37530;DHT22;23374;52.758;6.872;2023-10-19T00:47:51;8.50;99.90
37530;DHT22;23374;52.758;6.872;2023-10-19T00:50:13;8.50;99.90
37530;DHT22;23374;52.758;6.872;2023-10-19T00:52:43;8.50;99.90
37530;DHT22;23374;52.758;6.872;2023-10-19T00:55:10;8.50;99.90
37530;DHT22;23374;52.758;6.872;2023-10-19T00:57:32;8.50;99.90
37530;DHT22;23374;52.758;6.872;2023-10-19T00:59:54;8.50;1.00
37530;DHT22;23374;52.758;6.872;2023-10-19T01:02:21;8.50;1.00
37530;DHT22;23374;52.758;6.872;2023-10-19T01:04:53;8.50;1.00
37530;DHT22;23374;52.758;6.872;2023-10-19T01:07:20;8.50;1.00
37530;DHT22;23374;52.758;6.872;2023-10-19T01:09:47;8.50;1.00
37530;DHT22;23374;52.758;6.872;2023-10-19T01:12:08;8.50;1.00
37530;DHT22;23374;52.758;6.872;2023-10-19T01:18:00;8.50;1.00
37530;DHT22;23374;52.758;6.872;2023-10-19T01:20:26;8.50;1.00
37530;DHT22;23374;52.758;6.872;2023-10-19T01:23:08;8.50;1.00
37530;DHT22;23374;52.758;6.872;2023-10-19T01:25:52;8.50;1.00
37530;DHT22;23374;52.758;6.872;2023-10-19T01:28:34;8.50;1.00
37530;DHT22;23374;52.758;6.872;2023-10-19T01:31:21;8.50;1.00
37530;DHT22;23374;52.758;6.872;2023-10-19T01:33:59;8.50;1.00
37530;DHT22;23374;52.758;6.872;2023-10-19T01:36:26;8.50;1.00
37530;DHT22;23374;52.758;6.872;2023-10-19T01:38:48;8.50;1.00
37530;DHT22;23374;52.758;6.872;2023-10-19T01:41:09;8.50;1.00
37530;DHT22;23374;52.758;6.872;2023-10-19T01:43:43;8.50;1.00
37530;DHT22;23374;52.758;6.872;2023-10-19T01:46:04;8.50;1.00
37530;DHT22;23374;52.758;6.872;2023-10-19T01:48:25;8.50;1.00
37530;DHT22;23374;52.758;6.872;2023-10-19T01:50:56;8.50;1.00
37530;DHT22;23374;52.758;6.872;2023-10-19T01:53:17;8.50;1.00
37530;DHT22;23374;52.758;6.872;2023-10-19T01:55:38;8.50;1.00
37530;DHT22;23374;52.758;6.872;2023-10-19T01:57:58;8.50;1.00
37530;DHT22;23374;52.758;6.872;2023-10-19T02:00:19;8.50;1.00
37530;DHT22;23374;52.758;6.872;2023-10-19T02:02:42;8.50;1.00
37530;DHT22;23374;52.758;6.872;2023-10-19T02:05:04;8.50;1.00
37530;DHT22;23374;52.758;6.872;2023-10-19T02:07:29;8.50;1.00
37530;DHT22;23374;52.758;6.872;2023-10-19T02:09:49;8.60;1.00
37530;DHT22;23374;52.758;6.872;2023-10-19T02:12:09;8.70;1.00
37530;DHT22;23374;52.758;6.872;2023-10-19T02:14:29;8.60;1.00
37530;DHT22;23374;52.758;6.872;2023-10-19T02:16:55;8.60;1.00
37530;DHT22;23374;52.758;6.872;2023-10-19T02:19:21;8.60;1.00
37530;DHT22;23374;52.758;6.872;2023-10-19T02:21:42;8.60;1.00
37530;DHT22;23374;52.758;6.872;2023-10-19T02:24:05;8.60;1.00
37530;DHT22;23374;52.758;6.872;2023-10-19T02:26:27;8.60;1.00
37530;DHT22;23374;52.758;6.872;2023-10-19T02:28:47;8.60;1.00
37530;DHT22;23374;52.758;6.872;2023-10-19T02:31:10;8.60;1.00
37530;DHT22;23374;52.758;6.872;2023-10-19T02:33:35;8.60;1.00
37530;DHT22;23374;52.758;6.872;2023-10-19T02:35:55;8.60;1.00
37530;DHT22;23374;52.758;6.872;2023-10-19T02:38:17;8.60;1.00
37530;DHT22;23374;52.758;6.872;2023-10-19T02:40:37;8.60;1.00
37530;DHT22;23374;52.758;6.872;2023-10-19T02:43:00;8.60;1.00
37530;DHT22;23374;52.758;6.872;2023-10-19T02:45:23;8.60;1.00
37530;DHT22;23374;52.758;6.872;2023-10-19T02:47:45;8.60;1.00
37530;DHT22;23374;52.758;6.872;2023-10-19T02:50:07;8.60;1.00
37530;DHT22;23374;52.758;6.872;2023-10-19T02:52:31;8.60;1.00
37530;DHT22;23374;52.758;6.872;2023-10-19T02:54:52;8.60;1.00
37530;DHT22;23374;52.758;6.872;2023-10-19T02:57:17;8.70;1.00
37530;DHT22;23374;52.758;6.872;2023-10-19T02:59:37;8.70;1.00
37530;DHT22;23374;52.758;6.872;2023-10-19T03:02:00;8.70;1.00
37530;DHT22;23374;52.758;6.872;2023-10-19T03:04:21;8.70;1.00
37530;DHT22;23374;52.758;6.872;2023-10-19T03:06:41;8.70;1.00
37530;DHT22;23374;52.758;6.872;2023-10-19T03:09:07;8.60;1.00
37530;DHT22;23374;52.758;6.872;2023-10-19T03:11:49;8.70;1.00
37530;DHT22;23374;52.758;6.872;2023-10-19T03:14:13;8.70;1.00
37530;DHT22;23374;52.758;6.872;2023-10-19T03:16:36;8.70;1.00
37530;DHT22;23374;52.758;6.872;2023-10-19T03:18:57;8.70;1.00
37530;DHT22;23374;52.758;6.872;2023-10-19T03:21:17;8.70;1.00
37530;DHT22;23374;52.758;6.872;2023-10-19T03:23:39;8.70;1.00
37530;DHT22;23374;52.758;6.872;2023-10-19T03:26:47;8.80;22.40
37530;DHT22;23374;52.758;6.872;2023-10-19T03:29:10;8.70;20.20
37530;DHT22;23374;52.758;6.872;2023-10-19T03:31:35;8.80;18.70
37530;DHT22;23374;52.758;6.872;2023-10-19T03:34:03;8.80;16.50
37530;DHT22;23374;52.758;6.872;2023-10-19T03:36:26;8.80;18.70
37530;DHT22;23374;52.758;6.872;2023-10-19T03:38:46;8.80;21.40
37530;DHT22;23374;52.758;6.872;2023-10-19T03:41:07;8.80;21.40
37530;DHT22;23374;52.758;6.872;2023-10-19T03:43:29;8.80;27.40
37530;DHT22;23374;52.758;6.872;2023-10-19T03:45:49;8.80;34.60
37530;DHT22;23374;52.758;6.872;2023-10-19T03:48:12;8.80;37.30
37530;DHT22;23374;52.758;6.872;2023-10-19T03:50:35;8.80;48.20
37530;DHT22;23374;52.758;6.872;2023-10-19T03:52:56;8.80;62.90
37530;DHT22;23374;52.758;6.872;2023-10-19T03:55:17;8.90;71.90
37530;DHT22;23374;52.758;6.872;2023-10-19T03:57:43;8.90;71.70
37530;DHT22;23374;52.758;6.872;2023-10-19T04:00:08;8.90;64.90
37530;DHT22;23374;52.758;6.872;2023-10-19T04:02:36;8.90;89.60
37530;DHT22;23374;52.758;6.872;2023-10-19T04:04:58;8.90;99.90
37530;DHT22;23374;52.758;6.872;2023-10-19T04:07:21;8.90;99.90
37530;DHT22;23374;52.758;6.872;2023-10-19T04:09:41;8.90;99.90
37530;DHT22;23374;52.758;6.872;2023-10-19T04:12:20;9.00;99.90
37530;DHT22;23374;52.758;6.872;2023-10-19T04:14:42;9.00;99.90
37530;DHT22;23374;52.758;6.872;2023-10-19T04:17:02;9.00;99.90
37530;DHT22;23374;52.758;6.872;2023-10-19T04:19:23;9.00;99.90
37530;DHT22;23374;52.758;6.872;2023-10-19T04:21:44;9.00;99.90
37530;DHT22;23374;52.758;6.872;2023-10-19T04:24:07;9.00;99.90
37530;DHT22;23374;52.758;6.872;2023-10-19T04:26:52;9.00;99.90
37530;DHT22;23374;52.758;6.872;2023-10-19T04:29:12;9.00;95.40
37530;DHT22;23374;52.758;6.872;2023-10-19T04:31:38;9.10;99.80
37530;DHT22;23374;52.758;6.872;2023-10-19T04:34:10;9.00;99.90
37530;DHT22;23374;52.758;6.872;2023-10-19T04:36:30;9.10;99.90
37530;DHT22;23374;52.758;6.872;2023-10-19T04:38:51;9.10;99.90
37530;DHT22;23374;52.758;6.872;2023-10-19T04:41:12;9.10;99.90
37530;DHT22;23374;52.758;6.872;2023-10-19T04:43:36;9.10;99.90
37530;DHT22;23374;52.758;6.872;2023-10-19T04:45:59;9.10;99.90
37530;DHT22;23374;52.758;6.872;2023-10-19T04:48:20;9.20;99.90
37530;DHT22;23374;52.758;6.872;2023-10-19T04:50:41;9.10;99.90
37530;DHT22;23374;52.758;6.872;2023-10-19T04:53:02;9.10;99.90
37530;DHT22;23374;52.758;6.872;2023-10-19T04:55:22;9.20;99.90
37530;DHT22;23374;52.758;6.872;2023-10-19T04:57:43;9.20;99.90
37530;DHT22;23374;52.758;6.872;2023-10-19T05:00:05;9.20;99.90
37530;DHT22;23374;52.758;6.872;2023-10-19T05:02:25;9.30;99.90
37530;DHT22;23374;52.758;6.872;2023-10-19T05:04:47;9.20;99.90
37530;DHT22;23374;52.758;6.872;2023-10-19T05:07:07;9.30;99.90
37530;DHT22;23374;52.758;6.872;2023-10-19T05:09:32;9.30;99.90
37530;DHT22;23374;52.758;6.872;2023-10-19T05:11:52;9.30;99.90
37530;DHT22;23374;52.758;6.872;2023-10-19T05:14:13;9.30;99.90
37530;DHT22;23374;52.758;6.872;2023-10-19T05:16:34;9.30;99.90
37530;DHT22;23374;52.758;6.872;2023-10-19T05:18:54;9.30;99.90
37530;DHT22;23374;52.758;6.872;2023-10-19T05:21:14;9.30;99.90
37530;DHT22;23374;52.758;6.872;2023-10-19T05:23:35;9.30;99.90
37530;DHT22;23374;52.758;6.872;2023-10-19T05:26:57;9.30;99.90
37530;DHT22;23374;52.758;6.872;2023-10-19T05:29:17;9.30;99.90
37530;DHT22;23374;52.758;6.872;2023-10-19T05:31:39;9.40;99.90
37530;DHT22;23374;52.758;6.872;2023-10-19T05:33:59;9.30;99.90
37530;DHT22;23374;52.758;6.872;2023-10-19T05:36:19;9.30;99.90
37530;DHT22;23374;52.758;6.872;2023-10-19T05:38:40;9.30;99.90
37530;DHT22;23374;52.758;6.872;2023-10-19T05:41:00;9.30;99.90
37530;DHT22;23374;52.758;6.872;2023-10-19T05:43:20;9.30;98.20
37530;DHT22;23374;52.758;6.872;2023-10-19T05:45:45;9.30;99.40
37530;DHT22;23374;52.758;6.872;2023-10-19T05:48:06;9.30;97.80
37530;DHT22;23374;52.758;6.872;2023-10-19T05:50:27;9.30;99.90
37530;DHT22;23374;52.758;6.872;2023-10-19T05:52:48;9.40;99.90
37530;DHT22;23374;52.758;6.872;2023-10-19T05:55:10;9.40;99.90
37530;DHT22;23374;52.758;6.872;2023-10-19T05:57:33;9.40;99.90
37530;DHT22;23374;52.758;6.872;2023-10-19T05:59:54;9.40;99.90
37530;DHT22;23374;52.758;6.872;2023-10-19T06:02:14;9.40;99.90
37530;DHT22;23374;52.758;6.872;2023-10-19T06:04:34;9.40;96.80
37530;DHT22;23374;52.758;6.872;2023-10-19T06:06:55;9.40;81.20
37530;DHT22;23374;52.758;6.872;2023-10-19T06:09:16;9.40;92.50
37530;DHT22;23374;52.758;6.872;2023-10-19T06:11:37;9.40;96.30
37530;DHT22;23374;52.758;6.872;2023-10-19T06:14:03;9.40;99.90
37530;DHT22;23374;52.758;6.872;2023-10-19T06:16:26;9.40;99.90
37530;DHT22;23374;52.758;6.872;2023-10-19T06:18:48;9.40;99.90
37530;DHT22;23374;52.758;6.872;2023-10-19T06:21:08;9.40;99.90
37530;DHT22;23374;52.758;6.872;2023-10-19T06:23:30;9.40;99.90
37530;DHT22;23374;52.758;6.872;2023-10-19T06:25:51;9.40;99.90
37530;DHT22;23374;52.758;6.872;2023-10-19T06:28:12;9.40;99.90
37530;DHT22;23374;52.758;6.872;2023-10-19T06:30:32;9.40;99.90
37530;DHT22;23374;52.758;6.872;2023-10-19T06:32:59;9.40;99.90
37530;DHT22;23374;52.758;6.872;2023-10-19T06:35:21;9.40;99.90
37530;DHT22;23374;52.758;6.872;2023-10-19T06:37:42;9.50;99.90
37530;DHT22;23374;52.758;6.872;2023-10-19T06:40:03;9.50;99.90
37530;DHT22;23374;52.758;6.872;2023-10-19T06:42:26;9.50;99.90
37530;DHT22;23374;52.758;6.872;2023-10-19T06:44:46;9.50;99.90
37530;DHT22;23374;52.758;6.872;2023-10-19T06:47:06;9.50;99.90
37530;DHT22;23374;52.758;6.872;2023-10-19T06:49:29;9.50;99.90
37530;DHT22;23374;52.758;6.872;2023-10-19T06:51:49;9.50;99.90
37530;DHT22;23374;52.758;6.872;2023-10-19T06:54:09;9.50;99.90
37530;DHT22;23374;52.758;6.872;2023-10-19T06:56:30;9.50;99.90
37530;DHT22;23374;52.758;6.872;2023-10-19T06:58:51;9.50;99.90
37530;DHT22;23374;52.758;6.872;2023-10-19T07:01:11;9.60;99.90
37530;DHT22;23374;52.758;6.872;2023-10-19T07:03:33;9.60;99.90
37530;DHT22;23374;52.758;6.872;2023-10-19T07:05:54;9.60;99.90
37530;DHT22;23374;52.758;6.872;2023-10-19T07:08:14;9.60;99.90
37530;DHT22;23374;52.758;6.872;2023-10-19T07:10:35;9.60;99.90
37530;DHT22;23374;52.758;6.872;2023-10-19T07:12:56;9.60;99.90
37530;DHT22;23374;52.758;6.872;2023-10-19T07:15:18;9.60;99.90
37530;DHT22;23374;52.758;6.872;2023-10-19T07:17:43;9.60;99.90
37530;DHT22;23374;52.758;6.872;2023-10-19T07:20:06;9.60;99.90
37530;DHT22;23374;52.758;6.872;2023-10-19T07:22:27;9.60;99.90
37530;DHT22;23374;52.758;6.872;2023-10-19T07:24:49;9.70;99.90
37530;DHT22;23374;52.758;6.872;2023-10-19T07:27:09;9.70;99.90
37530;DHT22;23374;52.758;6.872;2023-10-19T07:29:38;9.70;99.90
37530;DHT22;23374;52.758;6.872;2023-10-19T07:32:03;9.70;99.90
37530;DHT22;23374;52.758;6.872;2023-10-19T07:34:24;9.70;99.90
37530;DHT22;23374;52.758;6.872;2023-10-19T07:36:47;9.70;99.90
37530;DHT22;23374;52.758;6.872;2023-10-19T07:39:09;9.80;99.90
37530;DHT22;23374;52.758;6.872;2023-10-19T07:41:34;9.70;99.90
37530;DHT22;23374;52.758;6.872;2023-10-19T07:43:56;9.80;99.90
37530;DHT22;23374;52.758;6.872;2023-10-19T07:46:16;9.80;99.90
37530;DHT22;23374;52.758;6.872;2023-10-19T07:48:36;9.80;99.90
37530;DHT22;23374;52.758;6.872;2023-10-19T07:50:58;9.80;99.90
37530;DHT22;23374;52.758;6.872;2023-10-19T07:53:19;9.80;99.90
37530;DHT22;23374;52.758;6.872;2023-10-19T07:55:40;9.90;99.90
37530;DHT22;23374;52.758;6.872;2023-10-19T07:58:00;9.90;99.90
37530;DHT22;23374;52.758;6.872;2023-10-19T08:00:23;9.90;99.90
37530;DHT22;23374;52.758;6.872;2023-10-19T08:02:44;9.90;99.90
37530;DHT22;23374;52.758;6.872;2023-10-19T08:05:08;9.90;99.90
37530;DHT22;23374;52.758;6.872;2023-10-19T08:07:31;9.90;99.90
37530;DHT22;23374;52.758;6.872;2023-10-19T08:09:52;9.90;99.90
37530;DHT22;23374;52.758;6.872;2023-10-19T08:12:13;10.00;99.90
37530;DHT22;23374;52.758;6.872;2023-10-19T08:14:34;10.00;99.90
37530;DHT22;23374;52.758;6.872;2023-10-19T08:16:54;10.00;99.90
37530;DHT22;23374;52.758;6.872;2023-10-19T08:19:17;10.00;99.90
37530;DHT22;23374;52.758;6.872;2023-10-19T08:21:38;10.00;99.90
37530;DHT22;23374;52.758;6.872;2023-10-19T08:23:58;10.00;99.90
37530;DHT22;23374;52.758;6.872;2023-10-19T08:26:19;10.00;99.90
37530;DHT22;23374;52.758;6.872;2023-10-19T08:28:42;10.10;99.90
37530;DHT22;23374;52.758;6.872;2023-10-19T08:31:02;10.10;99.90
37530;DHT22;23374;52.758;6.872;2023-10-19T08:33:26;10.10;99.90
37530;DHT22;23374;52.758;6.872;2023-10-19T08:35:47;10.10;99.90
37530;DHT22;23374;52.758;6.872;2023-10-19T08:38:07;10.20;99.90
37530;DHT22;23374;52.758;6.872;2023-10-19T08:40:31;10.20;99.90
37530;DHT22;23374;52.758;6.872;2023-10-19T08:42:52;10.20;99.90
37530;DHT22;23374;52.758;6.872;2023-10-19T08:45:13;10.20;99.90
37530;DHT22;23374;52.758;6.872;2023-10-19T08:47:37;10.30;99.90
37530;DHT22;23374;52.758;6.872;2023-10-19T08:50:00;10.30;99.90
37530;DHT22;23374;52.758;6.872;2023-10-19T08:52:21;10.30;99.90
37530;DHT22;23374;52.758;6.872;2023-10-19T08:54:46;10.40;99.90
37530;DHT22;23374;52.758;6.872;2023-10-19T08:57:09;10.40;99.90
37530;DHT22;23374;52.758;6.872;2023-10-19T08:59:29;10.40;99.90
37530;DHT22;23374;52.758;6.872;2023-10-19T09:01:50;10.50;99.90
37530;DHT22;23374;52.758;6.872;2023-10-19T09:04:11;10.50;99.90
37530;DHT22;23374;52.758;6.872;2023-10-19T09:06:37;10.50;99.90
37530;DHT22;23374;52.758;6.872;2023-10-19T09:09:04;10.60;99.90
37530;DHT22;23374;52.758;6.872;2023-10-19T09:11:24;10.60;99.90
37530;DHT22;23374;52.758;6.872;2023-10-19T09:13:50;10.60;99.90
37530;DHT22;23374;52.758;6.872;2023-10-19T09:16:12;10.60;99.90
37530;DHT22;23374;52.758;6.872;2023-10-19T09:18:33;10.70;99.90
37530;DHT22;23374;52.758;6.872;2023-10-19T09:20:54;10.70;99.90
37530;DHT22;23374;52.758;6.872;2023-10-19T09:23:16;10.70;99.90
37530;DHT22;23374;52.758;6.872;2023-10-19T09:25:37;10.70;99.90
37530;DHT22;23374;52.758;6.872;2023-10-19T09:28:00;10.70;99.90
37530;DHT22;23374;52.758;6.872;2023-10-19T09:30:23;10.70;99.90
37530;DHT22;23374;52.758;6.872;2023-10-19T09:32:47;10.80;99.90
37530;DHT22;23374;52.758;6.872;2023-10-19T09:35:09;10.80;99.90
37530;DHT22;23374;52.758;6.872;2023-10-19T09:37:34;10.80;99.90
37530;DHT22;23374;52.758;6.872;2023-10-19T09:39:55;10.90;99.90
37530;DHT22;23374;52.758;6.872;2023-10-19T09:42:16;10.90;99.90
37530;DHT22;23374;52.758;6.872;2023-10-19T09:44:45;11.00;99.90
37530;DHT22;23374;52.758;6.872;2023-10-19T09:47:54;11.00;99.90
37530;DHT22;23374;52.758;6.872;2023-10-19T09:50:14;11.00;99.90
37530;DHT22;23374;52.758;6.872;2023-10-19T09:52:36;11.00;99.90
37530;DHT22;23374;52.758;6.872;2023-10-19T09:55:03;11.10;99.90
37530;DHT22;23374;52.758;6.872;2023-10-19T09:57:44;11.10;99.90
37530;DHT22;23374;52.758;6.872;2023-10-19T10:00:08;11.10;99.90
37530;DHT22;23374;52.758;6.872;2023-10-19T10:02:32;11.10;99.90
37530;DHT22;23374;52.758;6.872;2023-10-19T10:04:52;11.10;99.90
37530;DHT22;23374;52.758;6.872;2023-10-19T10:07:13;11.20;89.00
37530;DHT22;23374;52.758;6.872;2023-10-19T10:09:41;11.10;80.60
37530;DHT22;23374;52.758;6.872;2023-10-19T10:12:22;11.20;99.90
37530;DHT22;23374;52.758;6.872;2023-10-19T10:15:05;11.20;99.90
37530;DHT22;23374;52.758;6.872;2023-10-19T10:17:29;11.20;61.70
37530;DHT22;23374;52.758;6.872;2023-10-19T10:25:52;11.20;40.40
37530;DHT22;23374;52.758;6.872;2023-10-19T10:28:14;11.20;67.20
37530;DHT22;23374;52.758;6.872;2023-10-19T10:30:35;11.20;67.50
37530;DHT22;23374;52.758;6.872;2023-10-19T10:32:56;11.20;98.60
37530;DHT22;23374;52.758;6.872;2023-10-19T10:35:57;11.20;99.90
37530;DHT22;23374;52.758;6.872;2023-10-19T10:38:18;11.20;99.90
37530;DHT22;23374;52.758;6.872;2023-10-19T10:40:49;11.30;99.90
37530;DHT22;23374;52.758;6.872;2023-10-19T10:43:10;11.30;99.90
37530;DHT22;23374;52.758;6.872;2023-10-19T10:45:31;11.30;99.90
37530;DHT22;23374;52.758;6.872;2023-10-19T10:47:52;11.30;99.90
37530;DHT22;23374;52.758;6.872;2023-10-19T10:50:19;11.40;99.90
37530;DHT22;23374;52.758;6.872;2023-10-19T10:52:40;11.40;99.70
37530;DHT22;23374;52.758;6.872;2023-10-19T10:55:12;11.30;99.90
37530;DHT22;23374;52.758;6.872;2023-10-19T10:57:33;11.40;95.20
37530;DHT22;23374;52.758;6.872;2023-10-19T11:00:13;11.40;88.70
37530;DHT22;23374;52.758;6.872;2023-10-19T11:02:37;11.40;92.90
37530;DHT22;23374;52.758;6.872;2023-10-19T11:05:03;11.40;99.90
37530;DHT22;23374;52.758;6.872;2023-10-19T11:07:26;11.40;93.10
37530;DHT22;23374;52.758;6.872;2023-10-19T11:09:47;11.50;97.40
37530;DHT22;23374;52.758;6.872;2023-10-19T11:12:12;11.50;94.70
37530;DHT22;23374;52.758;6.872;2023-10-19T11:14:33;11.50;92.80
37530;DHT22;23374;52.758;6.872;2023-10-19T11:16:55;11.50;75.00
37530;DHT22;23374;52.758;6.872;2023-10-19T11:19:40;11.50;75.20
37530;DHT22;23374;52.758;6.872;2023-10-19T11:22:01;11.50;95.70
37530;DHT22;23374;52.758;6.872;2023-10-19T11:24:28;11.50;66.60
37530;DHT22;23374;52.758;6.872;2023-10-19T11:26:53;11.50;71.10
37530;DHT22;23374;52.758;6.872;2023-10-19T11:29:16;11.50;92.20
37530;DHT22;23374;52.758;6.872;2023-10-19T11:31:37;11.60;97.20
37530;DHT22;23374;52.758;6.872;2023-10-19T11:33:58;11.60;99.90
37530;DHT22;23374;52.758;6.872;2023-10-19T11:36:22;11.60;99.90
37530;DHT22;23374;52.758;6.872;2023-10-19T11:38:46;11.70;99.90
37530;DHT22;23374;52.758;6.872;2023-10-19T11:41:07;11.70;99.90
37530;DHT22;23374;52.758;6.872;2023-10-19T11:43:28;11.80;99.90
37530;DHT22;23374;52.758;6.872;2023-10-19T11:45:49;11.80;99.90
37530;DHT22;23374;52.758;6.872;2023-10-19T11:48:09;11.90;99.90
37530;DHT22;23374;52.758;6.872;2023-10-19T11:50:30;11.90;99.60
37530;DHT22;23374;52.758;6.872;2023-10-19T11:52:52;11.90;97.00
37530;DHT22;23374;52.758;6.872;2023-10-19T11:55:14;12.00;99.90
37530;DHT22;23374;52.758;6.872;2023-10-19T11:57:35;12.10;99.90
37530;DHT22;23374;52.758;6.872;2023-10-19T11:59:56;12.10;99.90
37530;DHT22;23374;52.758;6.872;2023-10-19T12:02:20;12.20;95.90
37530;DHT22;23374;52.758;6.872;2023-10-19T12:04:41;12.20;59.80
37530;DHT22;23374;52.758;6.872;2023-10-19T12:07:04;12.20;78.30
37530;DHT22;23374;52.758;6.872;2023-10-19T12:09:28;12.30;79.90
37530;DHT22;23374;52.758;6.872;2023-10-19T12:11:51;12.30;79.70
37530;DHT22;23374;52.758;6.872;2023-10-19T12:14:14;12.30;77.80
37530;DHT22;23374;52.758;6.872;2023-10-19T12:16:35;12.30;29.90
37530;DHT22;23374;52.758;6.872;2023-10-19T12:18:56;12.40;19.70
37530;DHT22;23374;52.758;6.872;2023-10-19T12:21:16;12.40;1.00
37530;DHT22;23374;52.758;6.872;2023-10-19T12:23:42;12.30;3.30
37530;DHT22;23374;52.758;6.872;2023-10-19T12:26:03;12.30;1.00
37530;DHT22;23374;52.758;6.872;2023-10-19T12:28:28;12.40;19.50
37530;DHT22;23374;52.758;6.872;2023-10-19T12:30:48;12.40;53.60
37530;DHT22;23374;52.758;6.872;2023-10-19T12:33:09;12.50;99.90
37530;DHT22;23374;52.758;6.872;2023-10-19T12:35:33;12.60;99.90
37530;DHT22;23374;52.758;6.872;2023-10-19T12:38:12;12.60;25.90
37530;DHT22;23374;52.758;6.872;2023-10-19T12:40:36;12.70;1.00
37530;DHT22;23374;52.758;6.872;2023-10-19T12:42:59;12.70;1.00
37530;DHT22;23374;52.758;6.872;2023-10-19T12:45:25;12.70;1.00
37530;DHT22;23374;52.758;6.872;2023-10-19T12:47:48;12.70;1.00
37530;DHT22;23374;52.758;6.872;2023-10-19T12:50:09;12.70;1.00
37530;DHT22;23374;52.758;6.872;2023-10-19T12:52:29;12.70;1.00
37530;DHT22;23374;52.758;6.872;2023-10-19T12:54:52;12.70;1.00
37530;DHT22;23374;52.758;6.872;2023-10-19T12:57:19;12.80;1.00
37530;DHT22;23374;52.758;6.872;2023-10-19T12:59:40;12.80;1.00
37530;DHT22;23374;52.758;6.872;2023-10-19T13:02:05;12.70;1.00
37530;DHT22;23374;52.758;6.872;2023-10-19T13:04:28;12.70;1.00
37530;DHT22;23374;52.758;6.872;2023-10-19T13:06:51;12.60;1.00
37530;DHT22;23374;52.758;6.872;2023-10-19T13:09:12;12.60;1.00
37530;DHT22;23374;52.758;6.872;2023-10-19T13:11:35;12.60;1.00
37530;DHT22;23374;52.758;6.872;2023-10-19T13:13:55;12.50;1.00
37530;DHT22;23374;52.758;6.872;2023-10-19T13:16:16;12.50;1.00
37530;DHT22;23374;52.758;6.872;2023-10-19T13:18:36;12.50;1.00
37530;DHT22;23374;52.758;6.872;2023-10-19T13:20:56;12.50;1.00
37530;DHT22;23374;52.758;6.872;2023-10-19T13:23:17;12.50;1.00
37530;DHT22;23374;52.758;6.872;2023-10-19T13:25:42;12.50;1.00
37530;DHT22;23374;52.758;6.872;2023-10-19T13:28:11;12.40;1.00
37530;DHT22;23374;52.758;6.872;2023-10-19T13:30:37;12.40;1.00
37530;DHT22;23374;52.758;6.872;2023-10-19T13:32:57;12.40;1.00
37530;DHT22;23374;52.758;6.872;2023-10-19T13:35:17;12.40;1.00
37530;DHT22;23374;52.758;6.872;2023-10-19T13:37:37;12.50;1.00
37530;DHT22;23374;52.758;6.872;2023-10-19T13:39:58;12.40;1.00
37530;DHT22;23374;52.758;6.872;2023-10-19T13:42:19;12.40;1.00
37530;DHT22;23374;52.758;6.872;2023-10-19T13:44:39;12.40;1.00
37530;DHT22;23374;52.758;6.872;2023-10-19T13:46:59;12.30;1.00
37530;DHT22;23374;52.758;6.872;2023-10-19T13:49:19;12.30;1.00
37530;DHT22;23374;52.758;6.872;2023-10-19T13:51:43;12.30;1.00
37530;DHT22;23374;52.758;6.872;2023-10-19T13:54:04;12.40;1.00
37530;DHT22;23374;52.758;6.872;2023-10-19T13:56:25;12.40;1.00
37530;DHT22;23374;52.758;6.872;2023-10-19T13:58:46;12.40;1.00
37530;DHT22;23374;52.758;6.872;2023-10-19T14:01:09;12.40;1.00
37530;DHT22;23374;52.758;6.872;2023-10-19T14:03:30;12.40;1.00
37530;DHT22;23374;52.758;6.872;2023-10-19T14:05:50;12.40;1.00
37530;DHT22;23374;52.758;6.872;2023-10-19T14:08:14;12.30;1.00
37530;DHT22;23374;52.758;6.872;2023-10-19T14:10:36;12.30;1.00
37530;DHT22;23374;52.758;6.872;2023-10-19T14:12:56;12.30;1.00
37530;DHT22;23374;52.758;6.872;2023-10-19T14:15:19;12.30;1.00
37530;DHT22;23374;52.758;6.872;2023-10-19T14:17:40;12.30;1.00
37530;DHT22;23374;52.758;6.872;2023-10-19T14:20:00;12.30;1.00
37530;DHT22;23374;52.758;6.872;2023-10-19T14:22:21;12.30;1.00
37530;DHT22;23374;52.758;6.872;2023-10-19T14:24:42;12.20;1.00
37530;DHT22;23374;52.758;6.872;2023-10-19T14:27:02;12.20;1.00
37530;DHT22;23374;52.758;6.872;2023-10-19T14:29:24;12.20;1.00
37530;DHT22;23374;52.758;6.872;2023-10-19T14:31:45;12.20;1.00
37530;DHT22;23374;52.758;6.872;2023-10-19T14:34:05;12.10;1.00
37530;DHT22;23374;52.758;6.872;2023-10-19T14:36:25;12.10;1.00
37530;DHT22;23374;52.758;6.872;2023-10-19T14:38:46;12.10;1.00
37530;DHT22;23374;52.758;6.872;2023-10-19T14:41:08;12.10;1.00
37530;DHT22;23374;52.758;6.872;2023-10-19T14:43:29;12.10;1.00
37530;DHT22;23374;52.758;6.872;2023-10-19T14:45:49;12.20;3.70
37530;DHT22;23374;52.758;6.872;2023-10-19T14:48:10;12.10;1.00
37530;DHT22;23374;52.758;6.872;2023-10-19T14:50:34;12.10;1.00
37530;DHT22;23374;52.758;6.872;2023-10-19T14:52:55;12.10;1.00
37530;DHT22;23374;52.758;6.872;2023-10-19T14:55:15;12.10;1.00
37530;DHT22;23374;52.758;6.872;2023-10-19T14:57:38;12.10;1.00
37530;DHT22;23374;52.758;6.872;2023-10-19T14:59:59;12.00;1.00
37530;DHT22;23374;52.758;6.872;2023-10-19T15:02:49;12.00;1.00
37530;DHT22;23374;52.758;6.872;2023-10-19T15:05:13;12.00;1.00
37530;DHT22;23374;52.758;6.872;2023-10-19T15:07:35;11.90;1.00
37530;DHT22;23374;52.758;6.872;2023-10-19T15:09:56;11.90;9.30
37530;DHT22;23374;52.758;6.872;2023-10-19T15:12:16;11.90;7.10
37530;DHT22;23374;52.758;6.872;2023-10-19T15:14:40;11.90;27.70
37530;DHT22;23374;52.758;6.872;2023-10-19T15:17:02;11.90;24.10
37530;DHT22;23374;52.758;6.872;2023-10-19T15:19:23;11.80;2.20
37530;DHT22;23374;52.758;6.872;2023-10-19T15:21:44;11.80;18.90
37530;DHT22;23374;52.758;6.872;2023-10-19T15:24:05;11.70;1.00
37530;DHT22;23374;52.758;6.872;2023-10-19T15:26:25;11.70;15.40
37530;DHT22;23374;52.758;6.872;2023-10-19T15:28:46;11.60;1.00
37530;DHT22;23374;52.758;6.872;2023-10-19T15:31:06;11.60;23.60